createdAt,value
2018-09-27T00:00:27.775Z,98348.00
2018-09-27T00:02:02.979Z,98347.63
2018-09-27T00:03:38.659Z,98351.12
2018-09-27T00:05:13.831Z,98343.92
2018-09-27T00:06:49.709Z,98339.66
2018-09-27T00:08:26.326Z,98348.78
2018-09-27T00:10:01.865Z,98338.29
2018-09-27T00:11:38.026Z,98337.70
2018-09-27T00:13:13.297Z,98339.84
2018-09-27T00:14:49.521Z,98333.05
2018-09-27T00:16:25.289Z,98339.47
2018-09-27T00:18:00.777Z,98339.64
2018-09-27T00:19:38.779Z,98336.35
2018-09-27T00:21:14.715Z,98336.16
2018-09-27T00:22:49.941Z,98341.78
2018-09-27T00:24:25.754Z,98332.66
2018-09-27T00:26:01.249Z,98336.16
2018-09-27T00:27:36.597Z,98333.44
2018-09-27T00:29:11.863Z,98326.05
2018-09-27T00:30:48.702Z,98329.73
2018-09-27T00:32:24.938Z,98323.31
2018-09-27T00:34:00.252Z,98325.25
2018-09-27T00:35:35.588Z,98330.72
2018-09-27T00:37:12.164Z,98322.91
2018-09-27T00:38:48.782Z,98325.46
2018-09-27T00:40:24.389Z,98318.84
2018-09-27T00:41:59.783Z,98317.66
2018-09-27T00:43:35.063Z,98323.91
2018-09-27T00:45:10.378Z,98326.45
2018-09-27T00:46:45.686Z,98322.92
2018-09-27T00:48:21.680Z,98315.72
2018-09-27T00:49:57.281Z,98312.81
2018-09-27T00:51:33.223Z,98323.33
2018-09-27T00:53:08.764Z,98321.95
2018-09-27T00:54:44.353Z,98312.24
2018-09-27T00:56:19.992Z,98312.63
2018-09-27T00:57:56.721Z,98307.55
2018-09-27T00:59:31.873Z,98307.19
2018-09-27T01:01:07.371Z,98305.03
2018-09-27T01:02:43.989Z,98309.89
2018-09-27T01:04:19.645Z,98312.62
2018-09-27T01:05:55.064Z,98317.48
2018-09-27T01:07:30.300Z,98317.88
2018-09-27T01:09:06.742Z,98311.06
2018-09-27T01:10:41.957Z,98309.52
2018-09-27T01:12:17.606Z,98312.62
2018-09-27T01:13:52.624Z,98309.69
2018-09-27T01:15:27.858Z,98310.09
2018-09-27T01:17:17.061Z,98307.56
2018-09-27T01:18:52.789Z,98306.77
2018-09-27T01:20:28.511Z,98307.95
2018-09-27T01:22:03.755Z,98306.58
2018-09-27T01:23:38.963Z,98304.66
2018-09-27T01:25:14.269Z,98310.08
2018-09-27T01:26:49.274Z,98302.67
2018-09-27T01:28:24.889Z,98305.59
2018-09-27T01:30:00.070Z,98303.06
2018-09-27T01:31:35.295Z,98300.92
2018-09-27T01:33:10.731Z,98306.34
2018-09-27T01:34:46.121Z,98302.48
2018-09-27T01:36:22.019Z,98300.33
2018-09-27T01:37:57.214Z,98301.66
2018-09-27T01:39:33.254Z,98289.02
2018-09-27T01:41:09.144Z,98291.35
2018-09-27T01:42:44.478Z,98288.05
2018-09-27T01:44:20.190Z,98298.55
2018-09-27T01:45:55.333Z,98291.38
2018-09-27T01:47:30.688Z,98293.87
2018-09-27T01:49:06.110Z,98291.93
2018-09-27T01:50:41.823Z,98287.05
2018-09-27T01:52:17.438Z,98297.16
2018-09-27T01:53:52.831Z,98294.81
2018-09-27T01:55:28.189Z,98284.31
2018-09-27T01:57:03.314Z,98287.02
2018-09-27T01:58:38.878Z,98289.55
2018-09-27T02:00:15.773Z,98286.28
2018-09-27T02:01:51.165Z,98290.20
2018-09-27T02:03:26.344Z,98285.93
2018-09-27T02:05:01.637Z,98286.50
2018-09-27T02:06:37.037Z,98282.03
2018-09-27T02:08:12.696Z,98282.03
2018-09-27T02:09:48.062Z,98289.22
2018-09-27T02:11:23.116Z,98289.43
2018-09-27T02:12:58.389Z,98290.36
2018-09-27T02:14:33.797Z,98285.30
2018-09-27T02:16:09.449Z,98282.75
2018-09-27T02:17:44.690Z,98285.08
2018-09-27T02:19:20.123Z,98286.66
2018-09-27T02:20:55.635Z,98282.22
2018-09-27T02:22:30.944Z,98286.13
2018-09-27T02:24:07.208Z,98290.21
2018-09-27T02:25:42.547Z,98287.50
2018-09-27T02:27:17.874Z,98287.31
2018-09-27T02:28:55.330Z,98279.70
2018-09-27T02:30:30.633Z,98286.89
2018-09-27T02:32:06.031Z,98284.77
2018-09-27T02:33:41.345Z,98282.83
2018-09-27T02:35:16.350Z,98284.75
2018-09-27T02:36:52.035Z,98281.47
2018-09-27T02:38:27.642Z,98275.43
2018-09-27T02:40:04.376Z,98280.28
2018-09-27T02:41:41.183Z,98281.44
2018-09-27T02:43:16.342Z,98281.23
2018-09-27T02:44:51.652Z,98276.95
2018-09-27T02:46:28.340Z,98280.89
2018-09-27T02:48:04.347Z,98279.91
2018-09-27T02:49:40.326Z,98278.34
2018-09-27T02:51:15.529Z,98277.16
2018-09-27T02:52:50.564Z,98276.39
2018-09-27T02:54:26.564Z,98274.04
2018-09-27T02:56:04.339Z,98271.35
2018-09-27T02:57:40.693Z,98272.71
2018-09-27T02:59:16.104Z,98264.94
2018-09-27T03:00:51.273Z,98262.22
2018-09-27T03:02:26.464Z,98261.44
2018-09-27T03:04:02.139Z,98258.88
2018-09-27T03:05:37.138Z,98253.64
2018-09-27T03:07:12.734Z,98255.94
2018-09-27T03:08:48.202Z,98250.52
2018-09-27T03:10:23.972Z,98252.27
2018-09-27T03:11:59.808Z,98251.30
2018-09-27T03:13:34.882Z,98248.58
2018-09-27T03:15:13.057Z,98252.06
2018-09-27T03:16:48.180Z,98252.24
2018-09-27T03:18:24.080Z,98246.41
2018-09-27T03:20:00.365Z,98247.94
2018-09-27T03:21:42.871Z,98247.15
2018-09-27T03:23:25.532Z,98244.98
2018-09-27T03:25:09.874Z,98242.28
2018-09-27T03:26:52.785Z,98239.00
2018-09-27T03:28:32.048Z,98239.80
2018-09-27T03:30:07.360Z,98236.89
2018-09-27T03:31:42.533Z,98236.31
2018-09-27T03:33:17.635Z,98230.67
2018-09-27T03:34:52.895Z,98231.84
2018-09-27T03:36:28.431Z,98227.77
2018-09-27T03:38:04.124Z,98231.05
2018-09-27T03:39:39.168Z,98231.45
2018-09-27T03:41:14.594Z,98224.84
2018-09-27T03:42:49.857Z,98226.03
2018-09-27T03:44:25.282Z,98220.59
2018-09-27T03:46:00.888Z,98217.89
2018-09-27T03:47:36.039Z,98215.95
2018-09-27T03:49:11.405Z,98213.02
2018-09-27T03:50:46.395Z,98213.98
2018-09-27T03:52:21.994Z,98217.08
2018-09-27T03:53:57.295Z,98210.67
2018-09-27T03:55:32.423Z,98209.88
2018-09-27T03:57:07.678Z,98205.02
2018-09-27T03:58:43.197Z,98204.38
2018-09-27T04:00:20.708Z,98205.92
2018-09-27T04:01:56.114Z,98199.49
2018-09-27T04:03:31.761Z,98197.77
2018-09-27T04:05:07.126Z,98195.24
2018-09-27T04:06:43.348Z,98195.05
2018-09-27T04:08:19.520Z,98186.37
2018-09-27T04:09:54.700Z,98189.08
2018-09-27T04:11:29.922Z,98184.44
2018-09-27T04:13:05.113Z,98181.14
2018-09-27T04:14:40.200Z,98183.02
2018-09-27T04:16:15.586Z,98184.37
2018-09-27T04:17:50.639Z,98182.20
2018-09-27T04:19:40.256Z,98181.02
2018-09-27T04:21:15.620Z,98181.23
2018-09-27T04:22:50.625Z,98183.39
2018-09-27T04:24:28.001Z,98178.95
2018-09-27T04:26:03.265Z,98179.12
2018-09-27T04:27:38.762Z,98173.35
2018-09-27T04:29:14.114Z,98177.58
2018-09-27T04:30:49.423Z,98176.58
2018-09-27T04:32:24.902Z,98184.31
2018-09-27T04:33:59.943Z,98181.56
2018-09-27T04:35:35.704Z,98182.55
2018-09-27T04:37:11.277Z,98181.39
2018-09-27T04:38:46.487Z,98180.44
2018-09-27T04:40:22.156Z,98180.23
2018-09-27T04:41:57.374Z,98174.61
2018-09-27T04:43:32.558Z,98178.67
2018-09-27T04:45:08.073Z,98172.62
2018-09-27T04:46:43.467Z,98176.67
2018-09-27T04:48:19.856Z,98181.90
2018-09-27T04:49:54.919Z,98182.30
2018-09-27T04:51:35.564Z,98184.08
2018-09-27T04:53:10.965Z,98185.26
2018-09-27T04:54:46.568Z,98180.39
2018-09-27T04:56:23.495Z,98183.14
2018-09-27T04:57:58.597Z,98183.89
2018-09-27T04:59:35.143Z,98187.95
2018-09-27T05:01:10.313Z,98190.45
2018-09-27T05:02:46.308Z,98192.77
2018-09-27T05:04:31.744Z,98194.67
2018-09-27T05:06:07.047Z,98193.67
2018-09-27T05:07:42.701Z,98197.02
2018-09-27T05:09:18.109Z,98189.87
2018-09-27T05:10:53.847Z,98193.78
2018-09-27T05:12:42.037Z,98189.13
2018-09-27T05:14:18.745Z,98194.77
2018-09-27T05:15:56.006Z,98191.23
2018-09-27T05:17:31.820Z,98193.55
2018-09-27T05:19:10.273Z,98188.51
2018-09-27T05:20:46.612Z,98186.62
2018-09-27T05:22:22.169Z,98183.56
2018-09-27T05:23:58.632Z,98185.88
2018-09-27T05:25:35.165Z,98187.59
2018-09-27T05:28:43.788Z,98189.77
2018-09-27T05:30:19.536Z,98185.70
2018-09-27T05:31:55.140Z,98184.73
2018-09-27T05:33:30.300Z,98186.52
2018-09-27T05:35:05.842Z,98183.46
2018-09-27T05:36:42.859Z,98181.72
2018-09-27T05:38:18.279Z,98184.42
2018-09-27T05:39:55.484Z,98182.42
2018-09-27T05:41:32.455Z,98183.41
2018-09-27T05:43:09.554Z,98184.55
2018-09-27T05:44:47.970Z,98181.45
2018-09-27T05:46:24.350Z,98178.91
2018-09-27T05:47:59.479Z,98188.64
2018-09-27T05:49:34.942Z,98183.97
2018-09-27T05:51:10.761Z,98184.22
2018-09-27T05:52:46.223Z,98178.61
2018-09-27T05:54:21.789Z,98182.87
2018-09-27T05:55:57.212Z,98179.00
2018-09-27T05:57:32.603Z,98176.47
2018-09-27T05:59:09.679Z,98181.08
2018-09-27T06:00:44.944Z,98178.17
2018-09-27T06:02:20.248Z,98177.19
2018-09-27T06:03:55.478Z,98174.66
2018-09-27T06:05:32.089Z,98178.17
2018-09-27T06:07:09.729Z,98178.94
2018-09-27T06:08:44.870Z,98176.81
2018-09-27T06:10:22.320Z,98179.32
2018-09-27T06:11:57.932Z,98177.98
2018-09-27T06:13:33.051Z,98176.27
2018-09-27T06:15:09.768Z,98174.13
2018-09-27T06:16:47.041Z,98182.88
2018-09-27T06:18:23.139Z,98178.23
2018-09-27T06:19:59.278Z,98175.12
2018-09-27T06:21:35.186Z,98168.16
2018-09-27T06:23:11.949Z,98174.39
2018-09-27T06:24:48.215Z,98177.30
2018-09-27T06:26:23.872Z,98176.53
2018-09-27T06:28:02.237Z,98170.88
2018-09-27T06:29:39.270Z,98167.77
2018-09-27T06:31:15.787Z,98167.99
2018-09-27T06:32:51.693Z,98167.80
2018-09-27T06:34:27.599Z,98164.87
2018-09-27T06:36:04.489Z,98165.09
2018-09-27T06:37:41.134Z,98160.40
2018-09-27T06:39:16.921Z,98164.48
2018-09-27T06:40:55.616Z,98157.11
2018-09-27T06:42:35.125Z,98163.11
2018-09-27T06:44:11.345Z,98173.23
2018-09-27T06:45:50.489Z,98168.54
2018-09-27T06:47:25.946Z,98168.71
2018-09-27T06:49:01.600Z,98162.80
2018-09-27T06:50:38.360Z,98168.98
2018-09-27T06:52:13.380Z,98165.38
2018-09-27T06:53:50.299Z,98163.38
2018-09-27T06:55:25.886Z,98157.84
2018-09-27T06:57:01.221Z,98162.47
2018-09-27T06:58:39.924Z,98160.05
2018-09-27T07:00:16.559Z,98160.20
2018-09-27T07:01:56.487Z,98160.71
2018-09-27T07:03:32.037Z,98154.78
2018-09-27T07:05:07.243Z,98149.84
2018-09-27T07:06:42.752Z,98151.70
2018-09-27T07:08:18.059Z,98150.42
2018-09-27T07:09:54.140Z,98150.94
2018-09-27T07:11:29.898Z,98147.91
2018-09-27T07:13:05.548Z,98146.02
2018-09-27T07:14:45.512Z,98151.55
2018-09-27T07:16:23.329Z,98154.76
2018-09-27T07:17:58.957Z,98146.98
2018-09-27T07:19:34.268Z,98151.61
2018-09-27T07:21:09.280Z,98151.10
2018-09-27T07:22:44.822Z,98149.41
2018-09-27T07:24:20.031Z,98143.80
2018-09-27T07:25:55.003Z,98142.94
2018-09-27T07:27:30.297Z,98146.89
2018-09-27T07:29:06.000Z,98146.96
2018-09-27T07:30:41.472Z,98146.14
2018-09-27T07:32:18.553Z,98140.14
2018-09-27T07:33:53.851Z,98142.64
2018-09-27T07:35:29.457Z,98142.11
2018-09-27T07:37:05.617Z,98143.66
2018-09-27T07:38:41.267Z,98146.12
2018-09-27T07:40:16.310Z,98138.61
2018-09-27T07:41:52.720Z,98147.59
2018-09-27T07:43:29.602Z,98143.02
2018-09-27T07:45:09.493Z,98144.98
2018-09-27T07:46:47.123Z,98142.77
2018-09-27T07:48:23.130Z,98145.78
2018-09-27T07:49:58.954Z,98143.52
2018-09-27T07:51:37.964Z,98144.30
2018-09-27T07:53:14.138Z,98142.14
2018-09-27T07:54:49.602Z,98143.47
2018-09-27T07:56:25.165Z,98144.38
2018-09-27T07:58:00.610Z,98142.92
2018-09-27T07:59:35.751Z,98138.88
2018-09-27T08:01:11.117Z,98133.94
2018-09-27T08:02:47.688Z,98134.08
2018-09-27T08:04:24.101Z,98128.55
2018-09-27T08:06:01.506Z,98130.02
2018-09-27T08:07:37.040Z,98130.78
2018-09-27T08:09:16.005Z,98121.73
2018-09-27T08:10:52.112Z,98123.03
2018-09-27T08:12:27.235Z,98121.20
2018-09-27T08:14:03.354Z,98121.20
2018-09-27T08:15:41.877Z,98118.85
2018-09-27T08:17:18.553Z,98116.80
2018-09-27T08:18:53.916Z,98120.53
2018-09-27T08:20:37.187Z,98117.44
2018-09-27T08:22:19.416Z,98117.38
2018-09-27T08:23:55.442Z,98115.41
2018-09-27T08:25:30.896Z,98112.48
2018-09-27T08:27:06.320Z,98103.39
2018-09-27T08:28:42.003Z,98097.19
2018-09-27T08:30:17.643Z,98101.26
2018-09-27T08:31:54.078Z,98102.06
2018-09-27T08:33:29.374Z,98099.06
2018-09-27T08:35:05.660Z,98094.91
2018-09-27T08:36:47.590Z,98090.82
2018-09-27T08:38:23.401Z,98087.14
2018-09-27T08:39:59.309Z,98090.19
2018-09-27T08:41:34.973Z,98087.00
2018-09-27T08:43:11.695Z,98084.08
2018-09-27T08:44:49.131Z,98083.95
2018-09-27T08:46:26.601Z,98081.82
2018-09-27T08:48:10.347Z,98083.58
2018-09-27T08:49:50.779Z,98081.56
2018-09-27T08:51:34.018Z,98080.58
2018-09-27T08:53:12.462Z,98077.16
2018-09-27T08:54:57.277Z,98075.58
2018-09-27T08:56:34.326Z,98073.05
2018-09-27T08:58:10.486Z,98078.64
2018-09-27T08:59:47.524Z,98074.92
2018-09-27T09:01:24.442Z,98075.29
2018-09-27T09:03:01.400Z,98071.58
2018-09-27T09:04:39.070Z,98079.70
2018-09-27T09:06:17.583Z,98069.69
2018-09-27T09:07:57.233Z,98069.25
2018-09-27T09:09:36.487Z,98065.52
2018-09-27T09:11:13.558Z,98067.70
2018-09-27T09:12:53.112Z,98064.66
2018-09-27T09:14:30.043Z,98062.74
2018-09-27T09:16:06.995Z,98068.25
2018-09-27T09:17:50.597Z,98067.54
2018-09-27T09:19:34.641Z,98067.63
2018-09-27T09:21:15.873Z,98069.84
2018-09-27T09:22:56.365Z,98067.36
2018-09-27T09:24:37.154Z,98063.73
2018-09-27T09:26:14.485Z,98064.77
2018-09-27T09:27:55.284Z,98056.69
2018-09-27T09:29:33.706Z,98053.05
2018-09-27T09:31:12.132Z,98056.43
2018-09-27T09:32:49.333Z,98049.77
2018-09-27T09:34:26.266Z,98053.55
2018-09-27T09:36:02.761Z,98050.77
2018-09-27T09:37:40.343Z,98045.81
2018-09-27T09:39:21.557Z,98051.23
2018-09-27T09:40:59.896Z,98048.66
2018-09-27T09:42:37.075Z,98047.55
2018-09-27T09:44:14.177Z,98045.11
2018-09-27T09:45:57.481Z,98042.17
2018-09-27T09:47:37.731Z,98034.61
2018-09-27T13:07:33.199Z,97748.44
2018-09-27T13:09:12.809Z,97753.73
2018-09-27T13:10:51.095Z,97748.37
2018-09-27T13:12:27.572Z,97745.85
2018-09-27T13:14:06.394Z,97739.31
2018-09-27T13:15:42.208Z,97734.85
2018-09-27T13:17:17.518Z,97737.11
2018-09-27T13:18:57.941Z,97742.26
2018-09-27T13:20:33.302Z,97732.88
2018-09-27T13:22:09.986Z,97729.81
2018-09-27T13:23:58.247Z,97728.22
2018-09-27T13:25:53.722Z,97731.10
2018-09-27T13:27:42.320Z,97724.36
2018-09-27T13:29:29.522Z,97714.95
2018-09-27T13:31:08.368Z,97711.70
2018-09-27T13:32:45.639Z,97714.89
2018-09-27T13:34:27.783Z,97711.27
2018-09-27T13:36:05.888Z,97706.16
2018-09-27T13:37:46.888Z,97710.78
2018-09-27T13:39:26.708Z,97702.65
2018-09-27T13:41:11.987Z,97700.23
2018-09-27T13:42:51.220Z,97698.83
2018-09-27T13:44:34.865Z,97690.97
2018-09-27T13:46:10.602Z,97687.42
2018-09-27T13:47:47.551Z,97686.56
2018-09-27T13:49:23.144Z,97675.78
2018-09-27T13:50:58.834Z,97678.20
2018-09-27T13:52:35.054Z,97677.19
2018-09-27T13:54:14.339Z,97673.55
2018-09-27T13:55:57.390Z,97677.86
2018-09-27T13:57:39.279Z,97674.72
2018-09-27T13:59:21.891Z,97672.74
2018-09-27T14:01:00.390Z,97670.98
2018-09-27T14:02:41.243Z,97670.22
2018-09-27T14:04:23.212Z,97664.96
2018-09-27T14:06:06.223Z,97671.07
2018-09-27T14:07:47.391Z,97662.98
2018-09-27T14:09:28.612Z,97662.91
2018-09-27T14:11:06.801Z,97655.32
2018-09-27T14:12:47.378Z,97654.83
2018-09-27T14:14:34.307Z,97651.27
2018-09-27T14:16:16.023Z,97651.81
2018-09-27T14:17:57.258Z,97644.09
2018-09-27T14:21:28.500Z,97644.68
2018-09-27T14:23:08.595Z,97637.57
2018-09-27T14:24:52.743Z,97641.89
2018-09-27T14:26:33.277Z,97636.59
2018-09-27T14:28:09.382Z,97634.03
2018-09-27T14:29:48.422Z,97627.08
2018-09-27T14:31:26.666Z,97626.49
2018-09-27T14:33:03.241Z,97623.34
2018-09-27T14:34:40.704Z,97626.35
2018-09-27T14:36:17.962Z,97623.70
2018-09-27T14:37:54.484Z,97613.06
2018-09-27T14:39:37.205Z,97608.72
2018-09-27T14:41:21.042Z,97624.06
2018-09-27T14:43:01.811Z,97619.66
2018-09-27T14:44:45.002Z,97620.29
2018-09-27T14:46:29.187Z,97618.66
2018-09-27T14:48:08.977Z,97612.70
2018-09-27T14:49:49.592Z,97607.27
2018-09-27T14:51:32.879Z,97604.52
2018-09-27T14:53:15.600Z,97598.81
2018-09-27T14:54:54.104Z,97595.83
2018-09-27T14:56:33.395Z,97599.45
2018-09-27T14:58:12.894Z,97593.37
2018-09-27T14:59:51.169Z,97595.41
2018-09-27T15:01:38.376Z,97592.87
2018-09-27T15:03:31.820Z,97589.26
2018-09-27T15:05:07.753Z,97589.89
2018-09-27T15:06:48.213Z,97590.26
2018-09-27T15:08:25.577Z,97581.27
2018-09-27T15:10:03.379Z,97584.58
2018-09-27T15:11:39.002Z,97578.11
2018-09-27T15:13:23.420Z,97581.05
2018-09-27T15:15:01.002Z,97576.87
2018-09-27T15:16:39.795Z,97581.44
2018-09-27T15:18:15.884Z,97577.89
2018-09-27T15:20:01.615Z,97572.70
2018-09-27T15:21:39.041Z,97576.14
2018-09-27T15:23:16.504Z,97569.94
2018-09-27T15:24:56.583Z,97568.28
2018-09-27T15:26:34.398Z,97563.35
2018-09-27T15:28:11.394Z,97564.25
2018-09-27T15:29:54.098Z,97562.46
2018-09-27T15:31:31.650Z,97558.30
2018-09-27T15:33:12.005Z,97562.46
2018-09-27T15:34:48.535Z,97564.11
2018-09-27T15:36:28.167Z,97567.16
2018-09-27T15:38:03.836Z,97561.95
2018-09-27T15:39:43.507Z,97561.20
2018-09-27T15:41:19.733Z,97561.97
2018-09-27T15:43:09.241Z,97561.34
2018-09-27T15:46:23.123Z,97550.70
2018-09-27T15:47:59.982Z,97552.73
2018-09-27T15:49:41.700Z,97550.81
2018-09-27T15:51:27.961Z,97548.90
2018-09-27T15:53:07.637Z,97544.60
2018-09-27T15:54:44.414Z,97551.28
2018-09-27T15:56:23.637Z,97544.14
2018-09-27T15:58:00.289Z,97541.46
2018-09-27T15:59:35.849Z,97535.20
2018-09-27T16:01:15.140Z,97535.00
2018-09-27T16:02:51.922Z,97537.73
2018-09-27T16:04:27.827Z,97532.98
2018-09-27T16:06:05.973Z,97537.69
2018-09-27T16:07:48.060Z,97536.11
2018-09-27T16:09:25.561Z,97538.55
2018-09-27T16:11:09.769Z,97535.02
2018-09-27T16:12:46.031Z,97533.03
2018-09-27T16:14:23.481Z,97532.53
2018-09-27T16:16:00.811Z,97525.27
2018-09-27T16:17:36.111Z,97521.84
2018-09-27T16:19:13.743Z,97527.91
2018-09-27T16:20:53.268Z,97517.70
2018-09-27T16:22:31.219Z,97518.84
2018-09-27T16:24:14.706Z,97513.19
2018-09-27T16:25:50.793Z,97510.57
2018-09-27T16:27:28.690Z,97512.59
2018-09-27T16:29:09.725Z,97508.56
2018-09-27T16:30:49.600Z,97506.67
2018-09-27T16:32:31.597Z,97510.70
2018-09-27T16:34:20.998Z,97512.00
2018-09-27T16:35:59.135Z,97507.42
2018-09-27T16:37:34.714Z,97510.46
2018-09-27T16:39:13.527Z,97508.31
2018-09-27T16:40:54.564Z,97506.20
2018-09-27T16:42:33.823Z,97503.48
2018-09-27T16:44:17.206Z,97508.23
2018-09-27T16:45:57.473Z,97509.46
2018-09-27T16:47:36.812Z,97512.82
2018-09-27T16:49:21.014Z,97508.34
2018-09-27T16:50:59.350Z,97510.78
2018-09-27T16:52:40.124Z,97510.16
2018-09-27T16:54:32.536Z,97515.89
2018-09-27T16:56:13.217Z,97517.25
2018-09-27T16:57:52.245Z,97516.78
2018-09-27T16:59:31.892Z,97509.17
2018-09-27T17:02:59.540Z,97512.78
2018-09-27T17:04:50.593Z,97512.43
2018-09-27T17:06:32.461Z,97511.58
2018-09-27T17:08:14.756Z,97507.52
2018-09-27T17:09:53.622Z,97507.18
2018-09-27T17:11:41.683Z,97513.44
2018-09-27T17:13:30.817Z,97506.70
2018-09-27T17:15:13.087Z,97506.63
2018-09-27T17:16:54.141Z,97505.14
2018-09-27T17:18:37.805Z,97497.33
2018-09-27T17:20:24.164Z,97497.67
2018-09-27T17:22:32.314Z,97494.76
2018-09-27T17:24:20.377Z,97492.09
2018-09-27T17:26:22.364Z,97495.30
2018-09-27T17:29:56.192Z,97495.55
2018-09-27T17:31:48.091Z,97492.46
2018-09-27T17:33:35.517Z,97494.71
2018-09-27T17:35:20.164Z,97493.13
2018-09-27T17:37:05.417Z,97493.54
2018-09-27T17:38:53.581Z,97490.34
2018-09-27T17:40:33.852Z,97488.93
2018-09-27T17:42:12.976Z,97485.18
2018-09-27T17:43:50.310Z,97488.81
2018-09-27T17:45:29.630Z,97490.84
2018-09-27T17:47:15.904Z,97485.38
2018-09-27T17:48:59.410Z,97487.30
2018-09-27T17:50:41.898Z,97487.41
2018-09-27T17:54:50.071Z,97488.30
2018-09-27T17:56:33.286Z,97489.94
2018-09-27T17:58:25.998Z,97491.38
2018-09-27T18:00:11.276Z,97492.70
2018-09-27T18:02:01.986Z,97489.77
2018-09-27T18:03:43.261Z,97491.08
2018-09-27T18:05:28.221Z,97502.38
2018-09-27T18:08:55.326Z,97503.86
2018-09-27T18:10:37.134Z,97496.73
2018-09-27T18:12:21.585Z,97499.75
2018-09-27T18:14:05.501Z,97496.07
2018-09-27T18:15:47.328Z,97493.59
2018-09-27T18:17:43.082Z,97494.20
2018-09-27T18:19:35.099Z,97489.55
2018-09-27T18:21:20.129Z,97493.66
2018-09-27T18:23:06.593Z,97495.53
2018-09-27T18:24:46.544Z,97491.25
2018-09-27T18:26:29.815Z,97494.76
2018-09-27T18:28:11.932Z,97487.63
2018-09-27T18:29:59.663Z,97487.63
2018-09-27T18:31:47.547Z,97486.95
2018-09-27T18:33:31.716Z,97482.88
2018-09-27T18:37:13.968Z,97491.55
2018-09-27T18:38:53.491Z,97492.53
2018-09-27T18:40:37.545Z,97488.02
2018-09-27T18:42:21.757Z,97494.64
2018-09-27T18:44:02.665Z,97491.26
2018-09-27T18:45:44.629Z,97487.10
2018-09-27T18:47:25.270Z,97490.36
2018-09-27T18:49:07.592Z,97494.72
2018-09-27T18:50:46.256Z,97495.74
2018-09-27T18:52:30.719Z,97487.95
2018-09-27T18:54:12.038Z,97492.09
2018-09-27T18:55:54.208Z,97489.45
2018-09-27T18:57:48.905Z,97495.69
2018-09-27T18:59:35.481Z,97490.12
2018-09-27T19:01:15.575Z,97493.06
2018-09-27T19:02:57.455Z,97483.63
2018-09-27T19:04:39.607Z,97482.83
2018-09-27T19:06:24.333Z,97489.19
2018-09-27T19:08:04.977Z,97487.07
2018-09-27T19:09:51.674Z,97481.48
2018-09-27T19:11:33.416Z,97485.52
2018-09-27T19:13:16.386Z,97481.24
2018-09-27T19:14:55.537Z,97488.78
2018-09-27T19:16:35.344Z,97483.14
2018-09-27T19:18:16.108Z,97482.55
2018-09-27T19:19:57.572Z,97482.98
2018-09-27T19:21:50.400Z,97477.17
2018-09-27T19:23:40.436Z,97481.27
2018-09-27T19:25:35.289Z,97478.87
2018-09-27T19:27:29.199Z,97483.90
2018-09-27T19:29:18.391Z,97473.73
2018-09-27T19:31:03.734Z,97476.90
2018-09-27T19:32:59.136Z,97476.73
2018-09-27T19:34:39.868Z,97482.02
2018-09-27T19:36:24.031Z,97482.27
2018-09-27T19:38:16.240Z,97477.99
2018-09-27T19:39:56.476Z,97476.94
2018-09-27T19:41:40.688Z,97475.98
2018-09-27T19:43:24.163Z,97479.48
2018-09-27T19:45:03.763Z,97472.97
2018-09-27T19:46:46.801Z,97477.13
2018-09-27T19:48:26.281Z,97470.88
2018-09-27T19:51:58.563Z,97464.11
2018-09-27T19:53:41.355Z,97472.53
2018-09-27T19:55:22.364Z,97476.10
2018-09-27T19:57:00.418Z,97471.00
2018-09-27T19:58:44.774Z,97471.41
2018-09-27T20:00:29.931Z,97473.47
2018-09-27T20:02:13.847Z,97470.91
2018-09-27T20:03:50.796Z,97475.19
2018-09-27T20:05:34.513Z,97466.55
2018-09-27T20:07:13.616Z,97469.13
2018-09-27T20:08:50.020Z,97465.34
2018-09-27T20:10:30.525Z,97465.64
2018-09-27T20:12:06.631Z,97460.88
2018-09-27T20:13:46.572Z,97462.91
2018-09-27T20:15:24.739Z,97466.41
2018-09-27T20:17:02.677Z,97462.61
2018-09-27T20:18:41.953Z,97460.83
2018-09-27T20:20:22.474Z,97464.55
2018-09-27T20:22:01.072Z,97463.78
2018-09-27T20:23:39.756Z,97458.38
2018-09-27T20:25:30.050Z,97465.55
2018-09-27T20:27:09.592Z,97467.39
2018-09-27T20:28:47.831Z,97458.86
2018-09-27T20:30:28.242Z,97467.63
2018-09-27T20:32:13.218Z,97464.81
2018-09-27T20:33:52.286Z,97465.08
2018-09-27T20:35:42.279Z,97468.50
2018-09-27T20:39:14.679Z,97470.57
2018-09-27T20:40:57.051Z,97468.94
2018-09-27T20:42:39.089Z,97474.39
2018-09-27T20:44:21.347Z,97473.13
2018-09-27T20:46:03.741Z,97466.95
2018-09-27T20:48:01.433Z,97464.28
2018-09-27T20:49:44.795Z,97461.61
2018-09-27T20:51:24.049Z,97462.20
2018-09-27T20:53:05.796Z,97465.03
2018-09-27T20:54:53.608Z,97473.03
2018-09-27T20:56:37.335Z,97470.13
2018-09-27T20:58:21.040Z,97469.20
2018-09-27T21:00:03.261Z,97475.20
2018-09-27T21:01:46.704Z,97472.85
2018-09-27T21:03:23.673Z,97477.98
2018-09-27T21:05:02.702Z,97468.94
2018-09-27T21:06:45.420Z,97461.91
2018-09-27T21:08:27.805Z,97459.19
2018-09-27T21:10:06.526Z,97456.69
2018-09-27T21:11:44.809Z,97446.66
2018-09-27T21:13:33.106Z,97441.21
2018-09-27T21:15:19.273Z,97441.42
2018-09-27T21:16:57.168Z,97448.09
2018-09-27T21:18:36.430Z,97441.16
2018-09-27T21:20:25.215Z,97439.11
2018-09-27T21:22:03.986Z,97448.35
2018-09-27T21:23:49.094Z,97449.59
2018-09-27T21:25:25.960Z,97451.45
2018-09-27T21:27:17.753Z,97446.88
2018-09-27T21:28:58.591Z,97448.98
2018-09-27T21:30:37.494Z,97447.48
2018-09-27T21:32:18.008Z,97453.61
2018-09-27T21:33:57.500Z,97452.66
2018-09-27T21:35:36.092Z,97453.13
2018-09-27T21:37:13.005Z,97450.17
2018-09-27T21:38:51.137Z,97446.49
2018-09-27T21:40:32.751Z,97444.23
2018-09-27T21:42:09.827Z,97446.59
2018-09-27T21:43:49.832Z,97440.45
2018-09-27T21:45:28.828Z,97446.59
2018-09-27T21:47:09.835Z,97443.59
2018-09-27T21:48:52.022Z,97439.04
2018-09-27T21:50:28.008Z,97443.64
2018-09-27T21:52:03.973Z,97435.82
2018-09-27T21:53:39.339Z,97435.23
2018-09-27T21:55:15.063Z,97441.50
2018-09-27T21:56:52.278Z,97434.98
2018-09-27T21:58:29.300Z,97432.42
2018-09-27T22:00:09.051Z,97429.39
2018-09-27T22:01:45.432Z,97432.06
2018-09-27T22:03:24.738Z,97427.15
2018-09-27T22:05:01.706Z,97422.68
2018-09-27T22:06:39.714Z,97426.68
2018-09-27T22:08:18.494Z,97426.80
2018-09-27T22:10:00.204Z,97424.20
2018-09-27T22:11:36.292Z,97430.54
2018-09-27T22:13:12.668Z,97425.22
2018-09-27T22:14:48.903Z,97431.44
2018-09-27T22:16:29.413Z,97432.08
2018-09-27T22:18:05.901Z,97430.90
2018-09-27T22:19:42.508Z,97433.17
2018-09-27T22:21:20.406Z,97429.55
2018-09-27T22:22:56.839Z,97431.05
2018-09-27T22:24:32.636Z,97434.46
2018-09-27T22:26:08.749Z,97431.78
2018-09-27T22:27:44.969Z,97434.69
2018-09-27T22:29:22.248Z,97428.78
2018-09-27T22:30:58.869Z,97422.09
2018-09-27T22:32:35.463Z,97430.19
2018-09-27T22:34:11.301Z,97426.59
2018-09-27T22:35:46.562Z,97430.14
2018-09-27T22:37:21.699Z,97431.86
2018-09-27T22:38:57.008Z,97427.88
2018-09-27T22:40:33.848Z,97426.23
2018-09-27T22:42:09.938Z,97425.41
2018-09-27T22:43:46.634Z,97425.10
2018-09-27T22:47:27.115Z,97426.41
2018-09-27T22:49:13.869Z,97427.28
2018-09-27T22:51:02.572Z,97425.56
2018-09-27T22:52:38.951Z,97429.36
2018-09-27T22:54:14.691Z,97422.47
2018-09-27T22:55:51.818Z,97427.40
2018-09-27T22:57:36.531Z,97429.36
2018-09-27T22:59:11.945Z,97430.38